Northwestern — WDE5199 — position and weather

sailwx.info

Track history (hours):
 
Tides and Currents Weather Stations Pressure Air Temp Water Temp Dewpoint Dewpoint Depression Visibility Wind Speed Wind Dir Waves Ship Positions

Northwestern

Owner: Northwestern LLC, Seattle, WA. More information available from US FCC via Universal Licensing System and Coast Guard Vessel Documentation Center.

Last reported at 2016-Jun-08 21:09 UTC. Time now 2016-Jul-01 01:02 UTC.
Position N 49°24' W 126°50'.
Warning: this ship's position is 22 days out of date.

Length 38 m; draft 4.3 m.

Type: Fishing. MMSI: 367363350.

Date/timePositionNaut miles runAvg speedWind from/ knotsBaromVisibWave heightAir tempDewpointWater temp
2016-Jun-08 21:09N 49°24' W 126°50'6 9.8
2016-Jun-08 20:33N 49°20' W 126°42'10 9.8
2016-Jun-08 19:33N 49°15' W 126°30'21 9.9
2016-Jun-08 17:28N 49°03' W 126°04'910.2
2016-Jun-08 16:33N 48°58' W 125°52'1010.0
2016-Jun-08 15:33N 48°52' W 125°40'10 9.8
2016-Jun-08 14:34N 48°47' W 125°28'10 9.8
2016-Jun-08 13:30N 48°41' W 125°14'10 9.8
2016-Jun-08 12:31N 48°36' W 125°02'9 9.0
2016-Jun-08 11:33N 48°32' W 124°50'9 9.2
2016-Jun-08 10:33N 48°29' W 124°37'10 9.8
2016-Jun-08 09:33N 48°25' W 124°24'1010.0
2016-Jun-08 08:33N 48°21' W 124°10'1110.6
2016-Jun-08 07:33N 48°18' W 123°55'1010.5
2016-Jun-08 06:33N 48°16' W 123°39'1210.7
2016-Jun-08 05:26N 48°14' W 123°22'9 9.7
2016-Jun-08 04:32N 48°13' W 123°09'11 9.3
2016-Jun-08 03:23N 48°12' W 122°53'19 6.8
2016-Jun-08 00:32N 47°58' W 122°34'8 7.9
2016-Jun-07 23:33N 47°51' W 122°27'9 9.3
2016-Jun-07 22:33N 47°42' W 122°26'1 1.1
2016-Jun-07 21:33N 47°43' W 122°26'3 3.3
2016-Jun-07 20:33N 47°40' W 122°24'0 0.3
2016-Jun-07 19:33N 47°40' W 122°23'0 0.0
2016-Jun-07 18:33N 47°40' W 122°23'0 0.0
2016-Jun-07 17:33N 47°40' W 122°23'0 0.0
2016-Jun-07 16:33N 47°40' W 122°23'0 0.0
2016-Jun-07 15:33N 47°40' W 122°23'0 0.0
2016-Jun-07 14:33N 47°40' W 122°23'0 0.0
2016-Jun-07 13:33N 47°40' W 122°23'0 0.0
2016-Jun-07 12:33N 47°40' W 122°23'0 0.0
2016-Jun-07 11:33N 47°40' W 122°23'0 0.0
2016-Jun-07 10:33N 47°40' W 122°23'0 0.0
2016-Jun-07 09:33N 47°40' W 122°23'0 0.0
2016-Jun-07 08:33N 47°40' W 122°23'0 0.0
2016-Jun-07 07:33N 47°40' W 122°23'0 0.0
2016-Jun-07 06:34N 47°40' W 122°23'0 0.0
2016-Jun-07 05:33N 47°40' W 122°23'0 0.0
2016-Jun-07 04:34N 47°40' W 122°23'0 0.0
2016-Jun-07 03:33N 47°40' W 122°23'0 0.0
2016-Jun-07 02:33N 47°40' W 122°23'0 0.0
2016-Jun-07 01:33N 47°40' W 122°23'0 0.0
2016-Jun-07 00:33N 47°40' W 122°23'0 0.0
2016-Jun-06 23:34N 47°40' W 122°23'0 0.0
2016-Jun-06 22:33N 47°40' W 122°23'0 0.0
2016-Jun-06 21:33N 47°40' W 122°23'0 0.0
2016-Jun-06 20:33N 47°40' W 122°23'0 0.0
2016-Jun-06 19:33N 47°40' W 122°23'0 0.0
2016-Jun-06 18:33N 47°40' W 122°23'0 0.0
2016-Jun-06 17:33N 47°40' W 122°23'0 0.0
2016-Jun-06 16:33N 47°40' W 122°23'0 0.0
2016-Jun-06 15:33N 47°40' W 122°23'0 0.0
2016-Jun-06 14:33N 47°40' W 122°23'0 0.0
2016-Jun-06 13:33N 47°40' W 122°23'0 0.0
2016-Jun-06 12:34N 47°40' W 122°23'0 0.0
2016-Jun-06 11:33N 47°40' W 122°23'0 0.0
2016-Jun-06 10:33N 47°40' W 122°23'0 0.0
2016-Jun-06 09:33N 47°40' W 122°23'0 0.0
2016-Jun-06 08:33N 47°40' W 122°23'0 0.0
2016-Jun-06 07:33N 47°40' W 122°23'0 0.0
2016-Jun-06 06:33N 47°40' W 122°23'0 0.0
2016-Jun-06 05:33N 47°40' W 122°23'0 0.0
2016-Jun-06 04:34N 47°40' W 122°23'0 0.0
2016-Jun-06 03:33N 47°40' W 122°23'0 0.0
2016-Jun-06 02:33N 47°40' W 122°23'0 0.0
2016-Jun-06 01:33N 47°40' W 122°23'0 0.0
2016-Jun-06 00:33N 47°40' W 122°23'0 0.0
2016-Jun-05 23:33N 47°40' W 122°23'0 0.0
2016-Jun-05 22:34N 47°40' W 122°23'0 0.0
2016-Jun-05 21:33N 47°40' W 122°23'0 0.0
2016-Jun-05 20:33N 47°40' W 122°23'0 0.0
2016-Jun-05 19:33N 47°40' W 122°23'0 0.0
2016-Jun-05 18:33N 47°40' W 122°23'0 0.0
2016-Jun-05 17:33N 47°40' W 122°23'0 0.0
2016-Jun-05 16:33N 47°40' W 122°23'0 0.0
2016-Jun-05 15:34N 47°40' W 122°23'0 0.0
2016-Jun-05 14:33N 47°40' W 122°23'0 0.0
2016-Jun-05 13:33N 47°40' W 122°23'0 0.0
2016-Jun-05 12:33N 47°40' W 122°23'0 0.0
2016-Jun-05 11:33N 47°40' W 122°23'0 0.0
2016-Jun-05 10:33N 47°40' W 122°23'0 0.0
2016-Jun-05 09:33N 47°40' W 122°23'0 0.0
2016-Jun-05 08:33N 47°40' W 122°23'0 0.0
2016-Jun-05 07:33N 47°40' W 122°23'0 0.0
2016-Jun-05 06:33N 47°40' W 122°23'0 0.0
2016-Jun-05 05:33N 47°40' W 122°23'0 0.0
2016-Jun-05 04:33N 47°40' W 122°23'0 0.0
2016-Jun-05 03:33N 47°40' W 122°23'0 0.0
2016-Jun-05 02:34N 47°40' W 122°23'0 0.0
2016-Jun-05 01:33N 47°40' W 122°23'0 0.0
2016-Jun-05 00:33N 47°40' W 122°23'0 0.0
2016-Jun-04 23:33N 47°40' W 122°23'0 0.0
2016-Jun-04 22:33N 47°40' W 122°23'0 0.0
2016-Jun-04 21:33N 47°40' W 122°23'0 0.0
2016-Jun-04 20:34N 47°40' W 122°23'0 0.0
2016-Jun-04 19:33N 47°40' W 122°23'0 0.0
2016-Jun-04 18:33N 47°40' W 122°23'0 0.0
2016-Jun-04 17:33N 47°40' W 122°23'0 0.0
2016-Jun-04 16:33N 47°40' W 122°23'0 0.0
2016-Jun-04 15:33N 47°40' W 122°23'0 0.0
2016-Jun-04 14:33N 47°40' W 122°23'0 0.0
2016-Jun-04 13:33N 47°40' W 122°23'0 0.0
2016-Jun-04 12:33N 47°40' W 122°23'0 0.0
2016-Jun-04 11:33N 47°40' W 122°23'0 0.0
2016-Jun-04 10:33N 47°40' W 122°23'0 0.0
2016-Jun-04 09:34N 47°40' W 122°23'0 0.0
2016-Jun-04 08:33N 47°40' W 122°23'0 0.0
2016-Jun-04 07:33N 47°40' W 122°23'0 0.0
2016-Jun-04 06:33N 47°40' W 122°23'0 0.0
2016-Jun-04 05:33N 47°40' W 122°23'0 0.0
2016-Jun-04 04:33N 47°40' W 122°23'0 0.0
2016-Jun-04 03:33N 47°40' W 122°23'0 0.0
2016-Jun-04 02:33N 47°40' W 122°23'0 0.0
2016-Jun-04 01:33N 47°40' W 122°23'0 0.0
2016-Jun-04 00:33N 47°40' W 122°23'0 0.0
2016-Jun-03 23:34N 47°40' W 122°23'0 0.0
2016-Jun-03 22:33N 47°40' W 122°23'0 0.0
2016-Jun-03 21:33N 47°40' W 122°23'0 0.0
2016-Jun-03 20:33N 47°40' W 122°23'0 0.0
2016-Jun-03 19:33N 47°40' W 122°23'0 0.0
2016-Jun-03 18:34N 47°40' W 122°23'0 0.0
2016-Jun-03 17:33N 47°40' W 122°23'0 0.0
2016-Jun-03 16:33N 47°40' W 122°23'0 0.0
2016-Jun-03 15:33N 47°40' W 122°23'0 0.0
2016-Jun-03 14:33N 47°40' W 122°23'0 0.0
2016-Jun-03 13:33N 47°40' W 122°23'0 0.0
2016-Jun-03 12:33N 47°40' W 122°23'0 0.0
2016-Jun-03 11:33N 47°40' W 122°23'0 0.0
2016-Jun-03 10:33N 47°40' W 122°23'0 0.0
2016-Jun-03 09:33N 47°40' W 122°23'0 0.0
2016-Jun-03 08:33N 47°40' W 122°23'0 0.0
2016-Jun-03 07:33N 47°40' W 122°23'0 0.0
2016-Jun-03 06:33N 47°40' W 122°23'0 0.0
2016-Jun-03 05:33N 47°40' W 122°23'0 0.0
2016-Jun-03 04:33N 47°40' W 122°23'0 0.0
2016-Jun-03 03:33N 47°40' W 122°23'0 0.0
2016-Jun-03 02:33N 47°40' W 122°23'0 0.0
2016-Jun-03 01:33N 47°40' W 122°23'0 0.0
2016-Jun-03 00:33N 47°40' W 122°23'0 0.0
2016-Jun-02 23:33N 47°40' W 122°23'0 0.0
2016-Jun-02 22:33N 47°40' W 122°23'0 0.0
2016-Jun-02 21:33N 47°40' W 122°23'0 0.0
2016-Jun-02 20:33N 47°40' W 122°23'0 0.0
2016-Jun-02 19:33N 47°40' W 122°23'0 0.0
2016-Jun-02 18:33N 47°40' W 122°23'0 0.0
2016-Jun-02 17:33N 47°40' W 122°23'0 0.0
2016-Jun-02 16:33N 47°40' W 122°23'0 0.0
2016-Jun-02 15:33N 47°40' W 122°23'0 0.0
2016-Jun-02 14:34N 47°40' W 122°23'0 0.0
2016-Jun-02 13:33N 47°40' W 122°23'0 0.0
2016-Jun-02 12:33N 47°40' W 122°23'0 0.0
2016-Jun-02 11:33N 47°40' W 122°23'0 0.0
2016-Jun-02 10:33N 47°40' W 122°23'0 0.0
2016-Jun-02 09:33N 47°40' W 122°23'0 0.0
2016-Jun-02 08:33N 47°40' W 122°23'0 0.0
2016-Jun-02 07:33N 47°40' W 122°23'0 0.0
2016-Jun-02 06:33N 47°40' W 122°23'0 0.0
2016-Jun-02 05:34N 47°40' W 122°23'0 0.0
2016-Jun-02 04:33N 47°40' W 122°23'0 0.0
2016-Jun-02 03:33N 47°40' W 122°23'0 0.0
2016-Jun-02 02:33N 47°40' W 122°23'0 0.0
2016-Jun-02 01:34N 47°40' W 122°23'0 0.0
2016-Jun-02 00:33N 47°40' W 122°23'0 0.0
2016-Jun-01 23:33N 47°40' W 122°23'0 0.0
2016-Jun-01 22:33N 47°40' W 122°23'0 0.0
2016-Jun-01 21:33N 47°40' W 122°23'0 0.0
2016-Jun-01 20:33N 47°40' W 122°23'0 0.0
2016-Jun-01 19:33N 47°40' W 122°23'0 0.0
2016-Jun-01 18:33N 47°40' W 122°23'0 0.0
2016-Jun-01 17:33N 47°40' W 122°23'0 0.0
2016-Jun-01 16:33N 47°40' W 122°23'0 0.0
2016-Jun-01 15:33N 47°40' W 122°23'0 0.0
2016-Jun-01 14:33N 47°40' W 122°23'0 0.0
2016-Jun-01 13:33N 47°40' W 122°23'0 0.0
2016-Jun-01 12:33N 47°40' W 122°23'0 0.0
2016-Jun-01 11:33N 47°40' W 122°23'0 0.0
2016-Jun-01 10:33N 47°40' W 122°23'0 0.0
2016-Jun-01 09:33N 47°40' W 122°23'0 0.0
2016-Jun-01 08:33N 47°40' W 122°23'0 0.0
2016-Jun-01 07:33N 47°40' W 122°23'0 0.0
2016-Jun-01 06:33N 47°40' W 122°23'0 0.0
2016-Jun-01 05:34N 47°40' W 122°23'0 0.0
2016-Jun-01 04:33N 47°40' W 122°23'0 0.0
2016-Jun-01 03:33N 47°40' W 122°23'0 0.0
2016-Jun-01 02:33N 47°40' W 122°23'0 0.0
2016-Jun-01 01:33N 47°40' W 122°23'0 0.0
2016-Jun-01 00:33N 47°40' W 122°23'0 0.0
2016-May-31 23:33N 47°40' W 122°23'0 0.0
2016-May-31 22:33N 47°40' W 122°23'0 0.0
2016-May-31 21:33N 47°40' W 122°23'0 0.0
2016-May-31 20:33N 47°40' W 122°23'0 0.0
2016-May-31 19:33N 47°40' W 122°23'0 0.0
2016-May-31 18:33N 47°40' W 122°23'0 0.0
2016-May-31 17:33N 47°40' W 122°23'0 0.0
2016-May-31 16:34N 47°40' W 122°23'0 0.0
2016-May-31 15:33N 47°40' W 122°23'0 0.0
2016-May-31 14:34N 47°40' W 122°23'0 0.0
2016-May-31 13:33N 47°40' W 122°23'0 0.0
2016-May-31 12:33N 47°40' W 122°23'0 0.0
2016-May-31 11:33N 47°40' W 122°23'0 0.0
2016-May-31 10:33N 47°40' W 122°23'0 0.0
2016-May-31 09:33N 47°40' W 122°23'0 0.0
2016-May-31 08:33N 47°40' W 122°23'0 0.0
2016-May-31 07:33N 47°40' W 122°23'0 0.0
2016-May-31 06:34N 47°40' W 122°23'0 0.0
2016-May-31 04:33N 47°40' W 122°23'0 0.0
2016-May-31 03:33N 47°40' W 122°23'0 0.0
2016-May-31 02:33N 47°40' W 122°23'0 0.0
2016-May-31 01:33N 47°40' W 122°23'0 0.0
2016-May-31 00:33N 47°40' W 122°23'0 0.0
2016-May-30 23:34N 47°40' W 122°23'0 0.0
2016-May-30 22:33N 47°40' W 122°23'0 0.0
2016-May-30 21:33N 47°40' W 122°23'0 0.0
2016-May-30 20:33N 47°40' W 122°23'0 0.0
2016-May-30 19:33N 47°40' W 122°23'0 0.0
2016-May-30 18:33N 47°40' W 122°23'0 0.0
2016-May-30 17:33N 47°40' W 122°23'0 0.0
2016-May-30 16:34N 47°40' W 122°23'0 0.0
2016-May-30 15:34N 47°40' W 122°23'0 0.0
2016-May-30 14:33N 47°40' W 122°23'0 0.0
2016-May-30 13:33N 47°40' W 122°23'0 0.0
2016-May-30 12:33N 47°40' W 122°23'0 0.0
2016-May-30 11:33N 47°40' W 122°23'0 0.0
2016-May-30 10:33N 47°40' W 122°23'0 0.0
2016-May-30 09:33N 47°40' W 122°23'0 0.0
2016-May-30 08:33N 47°40' W 122°23'0 0.0
2016-May-30 07:33N 47°40' W 122°23'0 0.0
2016-May-30 06:33N 47°40' W 122°23'0 0.0
2016-May-30 05:33N 47°40' W 122°23'0 0.0
2016-May-30 04:33N 47°40' W 122°23'0 0.0
2016-May-30 03:33N 47°40' W 122°23'0 0.0
2016-May-30 02:33N 47°40' W 122°23'0 0.0
2016-May-30 01:33N 47°40' W 122°23'0 0.0
2016-May-30 00:33N 47°40' W 122°23'0 0.0
2016-May-29 23:33N 47°40' W 122°23'0 0.0
2016-May-29 22:33N 47°40' W 122°23'0 0.0
2016-May-29 21:33N 47°40' W 122°23'  
Track history (hours):
 
Tides and Currents Weather Stations Pressure Air Temp Water Temp Dewpoint Dewpoint Depression Visibility Wind Speed Wind Dir Waves Ship Positions

Northwestern

Owner: Northwestern LLC, Seattle, WA. More information available from US FCC via Universal Licensing System and Coast Guard Vessel Documentation Center.

Last reported at 2016-Jun-08 21:09 UTC. Time now 2016-Jul-01 01:02 UTC.
Position N 49°24' W 126°50'.
Warning: this ship's position is 22 days out of date.

Length 38 m; draft 4.3 m.

Type: Fishing. MMSI: 367363350.

Date/timePositionNaut miles runAvg speedWind from/ knotsBaromVisibWave heightAir tempDewpointWater temp
2016-Jun-08 21:09N 49°24' W 126°50'6 9.8
2016-Jun-08 20:33N 49°20' W 126°42'10 9.8
2016-Jun-08 19:33N 49°15' W 126°30'21 9.9
2016-Jun-08 17:28N 49°03' W 126°04'910.2
2016-Jun-08 16:33N 48°58' W 125°52'1010.0
2016-Jun-08 15:33N 48°52' W 125°40'10 9.8
2016-Jun-08 14:34N 48°47' W 125°28'10 9.8
2016-Jun-08 13:30N 48°41' W 125°14'10 9.8
2016-Jun-08 12:31N 48°36' W 125°02'9 9.0
2016-Jun-08 11:33N 48°32' W 124°50'9 9.2
2016-Jun-08 10:33N 48°29' W 124°37'10 9.8
2016-Jun-08 09:33N 48°25' W 124°24'1010.0
2016-Jun-08 08:33N 48°21' W 124°10'1110.6
2016-Jun-08 07:33N 48°18' W 123°55'1010.5
2016-Jun-08 06:33N 48°16' W 123°39'1210.7
2016-Jun-08 05:26N 48°14' W 123°22'9 9.7
2016-Jun-08 04:32N 48°13' W 123°09'11 9.3
2016-Jun-08 03:23N 48°12' W 122°53'19 6.8
2016-Jun-08 00:32N 47°58' W 122°34'8 7.9
2016-Jun-07 23:33N 47°51' W 122°27'9 9.3
2016-Jun-07 22:33N 47°42' W 122°26'1 1.1
2016-Jun-07 21:33N 47°43' W 122°26'3 3.3
2016-Jun-07 20:33N 47°40' W 122°24'0 0.3
2016-Jun-07 19:33N 47°40' W 122°23'0 0.0
2016-Jun-07 18:33N 47°40' W 122°23'0 0.0
2016-Jun-07 17:33N 47°40' W 122°23'0 0.0
2016-Jun-07 16:33N 47°40' W 122°23'0 0.0
2016-Jun-07 15:33N 47°40' W 122°23'0 0.0
2016-Jun-07 14:33N 47°40' W 122°23'0 0.0
2016-Jun-07 13:33N 47°40' W 122°23'0 0.0
2016-Jun-07 12:33N 47°40' W 122°23'0 0.0
2016-Jun-07 11:33N 47°40' W 122°23'0 0.0
2016-Jun-07 10:33N 47°40' W 122°23'0 0.0
2016-Jun-07 09:33N 47°40' W 122°23'0 0.0
2016-Jun-07 08:33N 47°40' W 122°23'0 0.0
2016-Jun-07 07:33N 47°40' W 122°23'0 0.0
2016-Jun-07 06:34N 47°40' W 122°23'0 0.0
2016-Jun-07 05:33N 47°40' W 122°23'0 0.0
2016-Jun-07 04:34N 47°40' W 122°23'0 0.0
2016-Jun-07 03:33N 47°40' W 122°23'0 0.0
2016-Jun-07 02:33N 47°40' W 122°23'0 0.0
2016-Jun-07 01:33N 47°40' W 122°23'0 0.0
2016-Jun-07 00:33N 47°40' W 122°23'0 0.0
2016-Jun-06 23:34N 47°40' W 122°23'0 0.0
2016-Jun-06 22:33N 47°40' W 122°23'0 0.0
2016-Jun-06 21:33N 47°40' W 122°23'0 0.0
2016-Jun-06 20:33N 47°40' W 122°23'0 0.0
2016-Jun-06 19:33N 47°40' W 122°23'0 0.0
2016-Jun-06 18:33N 47°40' W 122°23'0 0.0
2016-Jun-06 17:33N 47°40' W 122°23'0 0.0
2016-Jun-06 16:33N 47°40' W 122°23'0 0.0
2016-Jun-06 15:33N 47°40' W 122°23'0 0.0
2016-Jun-06 14:33N 47°40' W 122°23'0 0.0
2016-Jun-06 13:33N 47°40' W 122°23'0 0.0
2016-Jun-06 12:34N 47°40' W 122°23'0 0.0
2016-Jun-06 11:33N 47°40' W 122°23'0 0.0
2016-Jun-06 10:33N 47°40' W 122°23'0 0.0
2016-Jun-06 09:33N 47°40' W 122°23'0 0.0
2016-Jun-06 08:33N 47°40' W 122°23'0 0.0
2016-Jun-06 07:33N 47°40' W 122°23'0 0.0
2016-Jun-06 06:33N 47°40' W 122°23'0 0.0
2016-Jun-06 05:33N 47°40' W 122°23'0 0.0
2016-Jun-06 04:34N 47°40' W 122°23'0 0.0
2016-Jun-06 03:33N 47°40' W 122°23'0 0.0
2016-Jun-06 02:33N 47°40' W 122°23'0 0.0
2016-Jun-06 01:33N 47°40' W 122°23'0 0.0
2016-Jun-06 00:33N 47°40' W 122°23'0 0.0
2016-Jun-05 23:33N 47°40' W 122°23'0 0.0
2016-Jun-05 22:34N 47°40' W 122°23'0 0.0
2016-Jun-05 21:33N 47°40' W 122°23'0 0.0
2016-Jun-05 20:33N 47°40' W 122°23'0 0.0
2016-Jun-05 19:33N 47°40' W 122°23'0 0.0
2016-Jun-05 18:33N 47°40' W 122°23'0 0.0
2016-Jun-05 17:33N 47°40' W 122°23'0 0.0
2016-Jun-05 16:33N 47°40' W 122°23'0 0.0
2016-Jun-05 15:34N 47°40' W 122°23'0 0.0
2016-Jun-05 14:33N 47°40' W 122°23'0 0.0
2016-Jun-05 13:33N 47°40' W 122°23'0 0.0
2016-Jun-05 12:33N 47°40' W 122°23'0 0.0
2016-Jun-05 11:33N 47°40' W 122°23'0 0.0
2016-Jun-05 10:33N 47°40' W 122°23'0 0.0
2016-Jun-05 09:33N 47°40' W 122°23'0 0.0
2016-Jun-05 08:33N 47°40' W 122°23'0 0.0
2016-Jun-05 07:33N 47°40' W 122°23'0 0.0
2016-Jun-05 06:33N 47°40' W 122°23'0 0.0
2016-Jun-05 05:33N 47°40' W 122°23'0 0.0
2016-Jun-05 04:33N 47°40' W 122°23'0 0.0
2016-Jun-05 03:33N 47°40' W 122°23'0 0.0
2016-Jun-05 02:34N 47°40' W 122°23'0 0.0
2016-Jun-05 01:33N 47°40' W 122°23'0 0.0
2016-Jun-05 00:33N 47°40' W 122°23'0 0.0
2016-Jun-04 23:33N 47°40' W 122°23'0 0.0
2016-Jun-04 22:33N 47°40' W 122°23'0 0.0
2016-Jun-04 21:33N 47°40' W 122°23'0 0.0
2016-Jun-04 20:34N 47°40' W 122°23'0 0.0
2016-Jun-04 19:33N 47°40' W 122°23'0 0.0
2016-Jun-04 18:33N 47°40' W 122°23'0 0.0
2016-Jun-04 17:33N 47°40' W 122°23'0 0.0
2016-Jun-04 16:33N 47°40' W 122°23'0 0.0
2016-Jun-04 15:33N 47°40' W 122°23'0 0.0
2016-Jun-04 14:33N 47°40' W 122°23'0 0.0
2016-Jun-04 13:33N 47°40' W 122°23'0 0.0
2016-Jun-04 12:33N 47°40' W 122°23'0 0.0
2016-Jun-04 11:33N 47°40' W 122°23'0 0.0
2016-Jun-04 10:33N 47°40' W 122°23'0 0.0
2016-Jun-04 09:34N 47°40' W 122°23'0 0.0
2016-Jun-04 08:33N 47°40' W 122°23'0 0.0
2016-Jun-04 07:33N 47°40' W 122°23'0 0.0
2016-Jun-04 06:33N 47°40' W 122°23'0 0.0
2016-Jun-04 05:33N 47°40' W 122°23'0 0.0
2016-Jun-04 04:33N 47°40' W 122°23'0 0.0
2016-Jun-04 03:33N 47°40' W 122°23'0 0.0
2016-Jun-04 02:33N 47°40' W 122°23'0 0.0
2016-Jun-04 01:33N 47°40' W 122°23'0 0.0
2016-Jun-04 00:33N 47°40' W 122°23'0 0.0
2016-Jun-03 23:34N 47°40' W 122°23'0 0.0
2016-Jun-03 22:33N 47°40' W 122°23'0 0.0
2016-Jun-03 21:33N 47°40' W 122°23'0 0.0
2016-Jun-03 20:33N 47°40' W 122°23'0 0.0
2016-Jun-03 19:33N 47°40' W 122°23'0 0.0
2016-Jun-03 18:34N 47°40' W 122°23'0 0.0
2016-Jun-03 17:33N 47°40' W 122°23'0 0.0
2016-Jun-03 16:33N 47°40' W 122°23'0 0.0
2016-Jun-03 15:33N 47°40' W 122°23'0 0.0
2016-Jun-03 14:33N 47°40' W 122°23'0 0.0
2016-Jun-03 13:33N 47°40' W 122°23'0 0.0
2016-Jun-03 12:33N 47°40' W 122°23'0 0.0
2016-Jun-03 11:33N 47°40' W 122°23'0 0.0
2016-Jun-03 10:33N 47°40' W 122°23'0 0.0
2016-Jun-03 09:33N 47°40' W 122°23'0 0.0
2016-Jun-03 08:33N 47°40' W 122°23'0 0.0
2016-Jun-03 07:33N 47°40' W 122°23'0 0.0
2016-Jun-03 06:33N 47°40' W 122°23'0 0.0
2016-Jun-03 05:33N 47°40' W 122°23'0 0.0
2016-Jun-03 04:33N 47°40' W 122°23'0 0.0
2016-Jun-03 03:33N 47°40' W 122°23'0 0.0
2016-Jun-03 02:33N 47°40' W 122°23'0 0.0
2016-Jun-03 01:33N 47°40' W 122°23'0 0.0
2016-Jun-03 00:33N 47°40' W 122°23'0 0.0
2016-Jun-02 23:33N 47°40' W 122°23'0 0.0
2016-Jun-02 22:33N 47°40' W 122°23'0 0.0
2016-Jun-02 21:33N 47°40' W 122°23'0 0.0
2016-Jun-02 20:33N 47°40' W 122°23'0 0.0
2016-Jun-02 19:33N 47°40' W 122°23'0 0.0
2016-Jun-02 18:33N 47°40' W 122°23'0 0.0
2016-Jun-02 17:33N 47°40' W 122°23'0 0.0
2016-Jun-02 16:33N 47°40' W 122°23'0 0.0
2016-Jun-02 15:33N 47°40' W 122°23'0 0.0
2016-Jun-02 14:34N 47°40' W 122°23'0 0.0
2016-Jun-02 13:33N 47°40' W 122°23'0 0.0
2016-Jun-02 12:33N 47°40' W 122°23'0 0.0
2016-Jun-02 11:33N 47°40' W 122°23'0 0.0
2016-Jun-02 10:33N 47°40' W 122°23'0 0.0
2016-Jun-02 09:33N 47°40' W 122°23'0 0.0
2016-Jun-02 08:33N 47°40' W 122°23'0 0.0
2016-Jun-02 07:33N 47°40' W 122°23'0 0.0
2016-Jun-02 06:33N 47°40' W 122°23'0 0.0
2016-Jun-02 05:34N 47°40' W 122°23'0 0.0
2016-Jun-02 04:33N 47°40' W 122°23'0 0.0
2016-Jun-02 03:33N 47°40' W 122°23'0 0.0
2016-Jun-02 02:33N 47°40' W 122°23'0 0.0
2016-Jun-02 01:34N 47°40' W 122°23'0 0.0
2016-Jun-02 00:33N 47°40' W 122°23'0 0.0
2016-Jun-01 23:33N 47°40' W 122°23'0 0.0
2016-Jun-01 22:33N 47°40' W 122°23'0 0.0
2016-Jun-01 21:33N 47°40' W 122°23'0 0.0
2016-Jun-01 20:33N 47°40' W 122°23'0 0.0
2016-Jun-01 19:33N 47°40' W 122°23'0 0.0
2016-Jun-01 18:33N 47°40' W 122°23'0 0.0
2016-Jun-01 17:33N 47°40' W 122°23'0 0.0
2016-Jun-01 16:33N 47°40' W 122°23'0 0.0
2016-Jun-01 15:33N 47°40' W 122°23'0 0.0
2016-Jun-01 14:33N 47°40' W 122°23'0 0.0
2016-Jun-01 13:33N 47°40' W 122°23'0 0.0
2016-Jun-01 12:33N 47°40' W 122°23'0 0.0
2016-Jun-01 11:33N 47°40' W 122°23'0 0.0
2016-Jun-01 10:33N 47°40' W 122°23'0 0.0
2016-Jun-01 09:33N 47°40' W 122°23'0 0.0
2016-Jun-01 08:33N 47°40' W 122°23'0 0.0
2016-Jun-01 07:33N 47°40' W 122°23'0 0.0
2016-Jun-01 06:33N 47°40' W 122°23'0 0.0
2016-Jun-01 05:34N 47°40' W 122°23'0 0.0
2016-Jun-01 04:33N 47°40' W 122°23'0 0.0
2016-Jun-01 03:33N 47°40' W 122°23'0 0.0
2016-Jun-01 02:33N 47°40' W 122°23'0 0.0
2016-Jun-01 01:33N 47°40' W 122°23'0 0.0
2016-Jun-01 00:33N 47°40' W 122°23'0 0.0
2016-May-31 23:33N 47°40' W 122°23'0 0.0
2016-May-31 22:33N 47°40' W 122°23'0 0.0
2016-May-31 21:33N 47°40' W 122°23'0 0.0
2016-May-31 20:33N 47°40' W 122°23'0 0.0
2016-May-31 19:33N 47°40' W 122°23'0 0.0
2016-May-31 18:33N 47°40' W 122°23'0 0.0
2016-May-31 17:33N 47°40' W 122°23'0 0.0
2016-May-31 16:34N 47°40' W 122°23'0 0.0
2016-May-31 15:33N 47°40' W 122°23'0 0.0
2016-May-31 14:34N 47°40' W 122°23'0 0.0
2016-May-31 13:33N 47°40' W 122°23'0 0.0
2016-May-31 12:33N 47°40' W 122°23'0 0.0
2016-May-31 11:33N 47°40' W 122°23'0 0.0
2016-May-31 10:33N 47°40' W 122°23'0 0.0
2016-May-31 09:33N 47°40' W 122°23'0 0.0
2016-May-31 08:33N 47°40' W 122°23'0 0.0
2016-May-31 07:33N 47°40' W 122°23'0 0.0
2016-May-31 06:34N 47°40' W 122°23'0 0.0
2016-May-31 04:33N 47°40' W 122°23'0 0.0
2016-May-31 03:33N 47°40' W 122°23'0 0.0
2016-May-31 02:33N 47°40' W 122°23'0 0.0
2016-May-31 01:33N 47°40' W 122°23'0 0.0
2016-May-31 00:33N 47°40' W 122°23'0 0.0
2016-May-30 23:34N 47°40' W 122°23'0 0.0
2016-May-30 22:33N 47°40' W 122°23'0 0.0
2016-May-30 21:33N 47°40' W 122°23'0 0.0
2016-May-30 20:33N 47°40' W 122°23'0 0.0
2016-May-30 19:33N 47°40' W 122°23'0 0.0
2016-May-30 18:33N 47°40' W 122°23'0 0.0
2016-May-30 17:33N 47°40' W 122°23'0 0.0
2016-May-30 16:34N 47°40' W 122°23'0 0.0
2016-May-30 15:34N 47°40' W 122°23'0 0.0
2016-May-30 14:33N 47°40' W 122°23'0 0.0
2016-May-30 13:33N 47°40' W 122°23'0 0.0
2016-May-30 12:33N 47°40' W 122°23'0 0.0
2016-May-30 11:33N 47°40' W 122°23'0 0.0
2016-May-30 10:33N 47°40' W 122°23'0 0.0
2016-May-30 09:33N 47°40' W 122°23'0 0.0
2016-May-30 08:33N 47°40' W 122°23'0 0.0
2016-May-30 07:33N 47°40' W 122°23'0 0.0
2016-May-30 06:33N 47°40' W 122°23'0 0.0
2016-May-30 05:33N 47°40' W 122°23'0 0.0
2016-May-30 04:33N 47°40' W 122°23'0 0.0
2016-May-30 03:33N 47°40' W 122°23'0 0.0
2016-May-30 02:33N 47°40' W 122°23'0 0.0
2016-May-30 01:33N 47°40' W 122°23'0 0.0
2016-May-30 00:33N 47°40' W 122°23'0 0.0
2016-May-29 23:33N 47°40' W 122°23'0 0.0
2016-May-29 22:33N 47°40' W 122°23'0 0.0
2016-May-29 21:33N 47°40' W 122°23'  

Dump ship's entire track history